sensor_id;sensor_type;location;lat;lon;timestamp;pressure;altitude;pressure_sealevel;temperature;humidity
29909;BME280;36247;51.952;6.146;2022-12-24T00:00:28;100354.97;;;9.53;100.00
29909;BME280;36247;51.952;6.146;2022-12-24T00:02:54;100364.66;;;9.53;100.00
29909;BME280;36247;51.952;6.146;2022-12-24T00:05:19;100370.91;;;9.61;100.00
29909;BME280;36247;51.952;6.146;2022-12-24T00:07:45;100360.31;;;9.61;100.00
29909;BME280;36247;51.952;6.146;2022-12-24T00:10:10;100362.06;;;9.59;100.00
29909;BME280;36247;51.952;6.146;2022-12-24T00:12:36;100363.81;;;9.57;100.00
29909;BME280;36247;51.952;6.146;2022-12-24T00:15:03;100369.13;;;9.57;100.00
29909;BME280;36247;51.952;6.146;2022-12-24T00:17:29;100373.47;;;9.55;100.00
29909;BME280;36247;51.952;6.146;2022-12-24T00:19:54;100369.06;;;9.51;100.00
29909;BME280;36247;51.952;6.146;2022-12-24T00:22:20;100377.84;;;9.48;100.00
29909;BME280;36247;51.952;6.146;2022-12-24T00:24:45;100379.56;;;9.48;100.00
29909;BME280;36247;51.952;6.146;2022-12-24T00:27:10;100382.22;;;9.48;100.00
29909;BME280;36247;51.952;6.146;2022-12-24T00:29:36;100381.31;;;9.46;100.00
29909;BME280;36247;51.952;6.146;2022-12-24T00:32:01;100383.94;;;9.43;100.00
29909;BME280;36247;51.952;6.146;2022-12-24T00:34:27;100385.69;;;9.42;100.00
29909;BME280;36247;51.952;6.146;2022-12-24T00:36:52;100380.44;;;9.45;100.00
29909;BME280;36247;51.952;6.146;2022-12-24T00:39:18;100389.28;;;9.47;100.00
29909;BME280;36247;51.952;6.146;2022-12-24T00:41:44;100397.19;;;9.47;100.00
29909;BME280;36247;51.952;6.146;2022-12-24T00:44:09;100400.69;;;9.45;100.00
29909;BME280;36247;51.952;6.146;2022-12-24T00:46:37;100405.06;;;9.40;100.00
29909;BME280;36247;51.952;6.146;2022-12-24T00:49:03;100406.88;;;9.44;100.00
29909;BME280;36247;51.952;6.146;2022-12-24T00:51:29;100416.56;;;9.45;100.00
29909;BME280;36247;51.952;6.146;2022-12-24T00:53:55;100409.47;;;9.41;100.00
29909;BME280;36247;51.952;6.146;2022-12-24T00:56:21;100409.47;;;9.41;100.00
29909;BME280;36247;51.952;6.146;2022-12-24T00:58:47;100419.19;;;9.45;100.00
29909;BME280;36247;51.952;6.146;2022-12-24T01:01:12;100426.19;;;9.38;100.00
29909;BME280;36247;51.952;6.146;2022-12-24T01:03:38;100437.66;;;9.42;100.00
29909;BME280;36247;51.952;6.146;2022-12-24T01:06:17;100427.06;;;9.39;100.00
29909;BME280;36247;51.952;6.146;2022-12-24T01:08:43;100434.97;;;9.37;100.00
29909;BME280;36247;51.952;6.146;2022-12-24T01:11:09;100450.81;;;9.35;100.00
29909;BME280;36247;51.952;6.146;2022-12-24T01:13:35;100435.84;;;9.34;100.00
29909;BME280;36247;51.952;6.146;2022-12-24T01:16:01;100455.19;;;9.32;100.00
29909;BME280;36247;51.952;6.146;2022-12-24T01:18:27;100463.13;;;9.32;100.00
29909;BME280;36247;51.952;6.146;2022-12-24T01:21:01;100459.66;;;9.34;100.00
29909;BME280;36247;51.952;6.146;2022-12-24T01:23:27;100456.06;;;9.32;100.00
29909;BME280;36247;51.952;6.146;2022-12-24T01:25:53;100468.44;;;9.35;100.00
29909;BME280;36247;51.952;6.146;2022-12-24T01:28:20;100467.50;;;9.31;100.00
29909;BME280;36247;51.952;6.146;2022-12-24T01:30:47;100480.78;;;9.34;100.00
29909;BME280;36247;51.952;6.146;2022-12-24T01:33:12;100472.72;;;9.27;100.00
29909;BME280;36247;51.952;6.146;2022-12-24T01:35:39;100476.38;;;9.33;100.00
29909;BME280;36247;51.952;6.146;2022-12-24T01:38:05;100498.34;;;9.29;100.00
29909;BME280;36247;51.952;6.146;2022-12-24T01:40:31;100482.44;;;9.28;100.00
29909;BME280;36247;51.952;6.146;2022-12-24T01:43:19;100473.59;;;9.24;100.00
29909;BME280;36247;51.952;6.146;2022-12-24T01:48:19;100487.69;;;9.23;100.00
29909;BME280;36247;51.952;6.146;2022-12-24T01:50:46;100500.91;;;9.23;100.00
29909;BME280;36247;51.952;6.146;2022-12-24T01:53:13;100490.28;;;9.20;100.00
29909;BME280;36247;51.952;6.146;2022-12-24T01:55:40;100488.53;;;9.22;100.00
29909;BME280;36247;51.952;6.146;2022-12-24T01:58:07;100506.19;;;9.23;100.00
29909;BME280;36247;51.952;6.146;2022-12-24T02:00:33;100516.75;;;9.23;100.00
29909;BME280;36247;51.952;6.146;2022-12-24T02:02:59;100503.47;;;9.18;100.00
29909;BME280;36247;51.952;6.146;2022-12-24T02:05:30;100509.59;;;9.16;100.00
29909;BME280;36247;51.952;6.146;2022-12-24T02:07:58;100514.84;;;9.13;100.00
29909;BME280;36247;51.952;6.146;2022-12-24T02:10:24;100533.31;;;9.11;100.00
29909;BME280;36247;51.952;6.146;2022-12-24T02:12:50;100525.41;;;9.13;100.00
29909;BME280;36247;51.952;6.146;2022-12-24T02:15:18;100524.50;;;9.11;100.00
29909;BME280;36247;51.952;6.146;2022-12-24T02:18:17;100530.69;;;9.13;100.00
29909;BME280;36247;51.952;6.146;2022-12-24T02:31:12;100564.81;;;8.97;100.00
29909;BME280;36247;51.952;6.146;2022-12-24T02:34:01;100560.25;;;8.87;100.00
29909;BME280;36247;51.952;6.146;2022-12-24T02:36:35;100557.63;;;8.87;100.00
29909;BME280;36247;51.952;6.146;2022-12-24T02:39:09;100567.16;;;8.79;100.00
29909;BME280;36247;51.952;6.146;2022-12-24T02:41:39;100568.94;;;8.80;100.00
29909;BME280;36247;51.952;6.146;2022-12-24T02:44:27;100566.25;;;8.77;100.00
29909;BME280;36247;51.952;6.146;2022-12-24T02:46:55;100579.31;;;8.68;100.00
29909;BME280;36247;51.952;6.146;2022-12-24T02:49:21;100577.50;;;8.65;100.00
29909;BME280;36247;51.952;6.146;2022-12-24T02:51:47;100573.00;;;8.61;100.00
29909;BME280;36247;51.952;6.146;2022-12-24T02:54:13;100568.59;;;8.58;100.00
29909;BME280;36247;51.952;6.146;2022-12-24T03:02:51;100578.97;;;8.49;100.00
29909;BME280;36247;51.952;6.146;2022-12-24T03:05:44;100584.25;;;8.49;100.00
29909;BME280;36247;51.952;6.146;2022-12-24T03:08:29;100587.72;;;8.45;100.00
29909;BME280;36247;51.952;6.146;2022-12-24T03:11:12;100584.88;;;8.37;100.00
29909;BME280;36247;51.952;6.146;2022-12-24T03:13:40;100579.59;;;8.37;100.00
29909;BME280;36247;51.952;6.146;2022-12-24T03:16:08;100579.56;;;8.36;100.00
29909;BME280;36247;51.952;6.146;2022-12-24T03:18:37;100586.63;;;8.37;100.00
29909;BME280;36247;51.952;6.146;2022-12-24T03:21:15;100595.28;;;8.29;100.00
29909;BME280;36247;51.952;6.146;2022-12-24T03:23:42;100586.63;;;8.37;100.00
29909;BME280;36247;51.952;6.146;2022-12-24T03:26:09;100584.91;;;8.40;100.00
29909;BME280;36247;51.952;6.146;2022-12-24T03:28:38;100591.84;;;8.34;100.00
29909;BME280;36247;51.952;6.146;2022-12-24T03:31:05;100591.78;;;8.30;100.00
29909;BME280;36247;51.952;6.146;2022-12-24T03:33:31;100596.28;;;8.35;100.00
29909;BME280;36247;51.952;6.146;2022-12-24T03:35:57;100591.19;;;8.44;100.00
29909;BME280;36247;51.952;6.146;2022-12-24T03:38:22;100597.22;;;8.38;100.00
29909;BME280;36247;51.952;6.146;2022-12-24T03:40:47;100599.88;;;8.40;100.00
29909;BME280;36247;51.952;6.146;2022-12-24T03:43:13;100595.44;;;8.37;100.00
29909;BME280;36247;51.952;6.146;2022-12-24T03:45:40;100604.03;;;8.27;100.00
29909;BME280;36247;51.952;6.146;2022-12-24T03:48:06;100601.34;;;8.25;100.00
29909;BME280;36247;51.952;6.146;2022-12-24T03:50:31;100603.97;;;8.24;100.00
29909;BME280;36247;51.952;6.146;2022-12-24T03:52:57;100608.41;;;8.25;100.00
29909;BME280;36247;51.952;6.146;2022-12-24T03:55:22;100613.88;;;8.36;100.00
29909;BME280;36247;51.952;6.146;2022-12-24T03:57:48;100611.25;;;8.37;100.00
29909;BME280;36247;51.952;6.146;2022-12-24T04:00:13;100600.84;;;8.43;100.00
29909;BME280;36247;51.952;6.146;2022-12-24T04:02:39;100599.19;;;8.47;100.00
29909;BME280;36247;51.952;6.146;2022-12-24T04:05:05;100603.75;;;8.56;100.00
29909;BME280;36247;51.952;6.146;2022-12-24T04:07:32;100599.34;;;8.58;100.00
29909;BME280;36247;51.952;6.146;2022-12-24T04:09:57;100602.81;;;8.54;100.00
29909;BME280;36247;51.952;6.146;2022-12-24T04:12:23;100598.44;;;8.54;100.00
29909;BME280;36247;51.952;6.146;2022-12-24T04:14:48;100616.94;;;8.56;100.00
29909;BME280;36247;51.952;6.146;2022-12-24T04:17:15;100614.38;;;8.60;100.00
29909;BME280;36247;51.952;6.146;2022-12-24T04:19:40;100619.66;;;8.60;100.00
29909;BME280;36247;51.952;6.146;2022-12-24T04:22:06;100632.13;;;8.68;100.00
29909;BME280;36247;51.952;6.146;2022-12-24T04:24:32;100620.69;;;8.70;100.00
29909;BME280;36247;51.952;6.146;2022-12-24T04:26:57;100613.72;;;8.72;100.00
29909;BME280;36247;51.952;6.146;2022-12-24T04:29:23;100622.53;;;8.74;100.00
29909;BME280;36247;51.952;6.146;2022-12-24T04:31:48;100620.78;;;8.73;100.00
29909;BME280;36247;51.952;6.146;2022-12-24T04:34:14;100637.50;;;8.74;100.00
29909;BME280;36247;51.952;6.146;2022-12-24T04:36:39;100634.03;;;8.75;100.00
29909;BME280;36247;51.952;6.146;2022-12-24T04:39:04;100633.25;;;8.83;100.00
29909;BME280;36247;51.952;6.146;2022-12-24T04:41:31;100633.34;;;8.88;100.00
29909;BME280;36247;51.952;6.146;2022-12-24T04:43:57;100628.16;;;8.93;100.00
29909;BME280;36247;51.952;6.146;2022-12-24T04:46:25;100629.91;;;8.92;100.00
29909;BME280;36247;51.952;6.146;2022-12-24T04:48:53;100641.53;;;9.02;100.00
29909;BME280;36247;51.952;6.146;2022-12-24T04:51:19;100636.22;;;9.00;100.00
29909;BME280;36247;51.952;6.146;2022-12-24T04:53:45;100629.19;;;9.03;100.00
29909;BME280;36247;51.952;6.146;2022-12-24T04:56:30;100633.59;;;9.02;100.00
29909;BME280;36247;51.952;6.146;2022-12-24T04:58:58;100638.00;;;9.03;100.00
29909;BME280;36247;51.952;6.146;2022-12-24T05:01:26;100648.66;;;9.06;100.00
29909;BME280;36247;51.952;6.146;2022-12-24T05:03:52;100643.38;;;9.08;100.00
29909;BME280;36247;51.952;6.146;2022-12-24T05:06:20;100646.91;;;9.08;100.00
29909;BME280;36247;51.952;6.146;2022-12-24T05:08:46;100650.38;;;9.06;100.00
29909;BME280;36247;51.952;6.146;2022-12-24T05:11:12;100650.34;;;9.04;100.00
29909;BME280;36247;51.952;6.146;2022-12-24T05:13:43;100651.38;;;9.12;100.00
29909;BME280;36247;51.952;6.146;2022-12-24T05:16:09;100656.84;;;9.23;100.00
29909;BME280;36247;51.952;6.146;2022-12-24T05:18:35;100651.50;;;9.20;100.00
29909;BME280;36247;51.952;6.146;2022-12-24T05:21:00;100653.31;;;9.21;100.00
29909;BME280;36247;51.952;6.146;2022-12-24T05:23:25;100643.56;;;9.18;100.00
29909;BME280;36247;51.952;6.146;2022-12-24T05:26:22;100636.50;;;9.19;100.00
29909;BME280;36247;51.952;6.146;2022-12-24T05:28:52;100643.59;;;9.20;100.00
29909;BME280;36247;51.952;6.146;2022-12-24T05:31:17;100652.44;;;9.24;100.00
29909;BME280;36247;51.952;6.146;2022-12-24T05:33:43;100650.75;;;9.27;100.00
29909;BME280;36247;51.952;6.146;2022-12-24T05:36:09;100657.78;;;9.28;100.00
29909;BME280;36247;51.952;6.146;2022-12-24T05:38:35;100668.41;;;9.31;100.00
29909;BME280;36247;51.952;6.146;2022-12-24T05:41:00;100668.41;;;9.31;100.00
29909;BME280;36247;51.952;6.146;2022-12-24T05:43:26;100663.22;;;9.34;100.00
29909;BME280;36247;51.952;6.146;2022-12-24T05:45:59;100671.13;;;9.34;100.00
29909;BME280;36247;51.952;6.146;2022-12-24T05:48:25;100667.53;;;9.31;100.00
29909;BME280;36247;51.952;6.146;2022-12-24T05:50:51;100675.53;;;9.35;100.00
29909;BME280;36247;51.952;6.146;2022-12-24T05:53:17;100673.72;;;9.33;100.00
29909;BME280;36247;51.952;6.146;2022-12-24T05:55:43;100672.03;;;9.37;100.00
29909;BME280;36247;51.952;6.146;2022-12-24T05:58:08;100670.34;;;9.42;100.00
29909;BME280;36247;51.952;6.146;2022-12-24T06:00:33;100677.47;;;9.46;100.00
29909;BME280;36247;51.952;6.146;2022-12-24T06:02:59;100680.16;;;9.49;100.00
29909;BME280;36247;51.952;6.146;2022-12-24T06:05:24;100679.25;;;9.45;100.00
29909;BME280;36247;51.952;6.146;2022-12-24T06:07:50;100680.13;;;9.47;100.00
29909;BME280;36247;51.952;6.146;2022-12-24T06:10:15;100682.81;;;9.49;100.00
29909;BME280;36247;51.952;6.146;2022-12-24T06:12:41;100691.69;;;9.51;100.00
29909;BME280;36247;51.952;6.146;2022-12-24T06:15:06;100700.56;;;9.56;100.00
29909;BME280;36247;51.952;6.146;2022-12-24T06:17:32;100687.34;;;9.56;100.00
29909;BME280;36247;51.952;6.146;2022-12-24T06:19:58;100689.97;;;9.56;100.00
29909;BME280;36247;51.952;6.146;2022-12-24T06:22:23;100701.47;;;9.58;100.00
29909;BME280;36247;51.952;6.146;2022-12-24T06:24:48;100697.84;;;9.51;100.00
29909;BME280;36247;51.952;6.146;2022-12-24T06:27:14;100705.00;;;9.59;100.00
29909;BME280;36247;51.952;6.146;2022-12-24T06:29:39;100708.50;;;9.56;100.00
29909;BME280;36247;51.952;6.146;2022-12-24T06:32:05;100708.53;;;9.59;100.00
29909;BME280;36247;51.952;6.146;2022-12-24T06:34:30;100707.69;;;9.60;100.00
29909;BME280;36247;51.952;6.146;2022-12-24T06:36:55;100710.38;;;9.63;100.00
29909;BME280;36247;51.952;6.146;2022-12-24T06:39:21;100715.63;;;9.62;100.00
29909;BME280;36247;51.952;6.146;2022-12-24T06:41:46;100725.38;;;9.64;100.00
29909;BME280;36247;51.952;6.146;2022-12-24T06:44:12;100727.97;;;9.63;100.00
29909;BME280;36247;51.952;6.146;2022-12-24T06:46:37;100724.44;;;9.61;100.00
29909;BME280;36247;51.952;6.146;2022-12-24T06:49:02;100734.16;;;9.62;100.00
29909;BME280;36247;51.952;6.146;2022-12-24T06:51:28;100734.28;;;9.71;100.00
29909;BME280;36247;51.952;6.146;2022-12-24T06:53:53;100739.56;;;9.69;100.00
29909;BME280;36247;51.952;6.146;2022-12-24T06:56:19;100737.69;;;9.64;100.00
29909;BME280;36247;51.952;6.146;2022-12-24T06:58:45;100748.34;;;9.68;100.00
29909;BME280;36247;51.952;6.146;2022-12-24T07:01:12;100750.03;;;9.63;100.00
29909;BME280;36247;51.952;6.146;2022-12-24T07:03:38;100734.97;;;9.59;100.00
29909;BME280;36247;51.952;6.146;2022-12-24T07:06:04;100732.25;;;9.53;100.00
29909;BME280;36247;51.952;6.146;2022-12-24T07:08:30;100742.00;;;9.57;100.00
29909;BME280;36247;51.952;6.146;2022-12-24T07:10:57;100742.00;;;9.57;100.00
29909;BME280;36247;51.952;6.146;2022-12-24T07:13:23;100733.09;;;9.52;100.00
29909;BME280;36247;51.952;6.146;2022-12-24T07:15:58;100746.28;;;9.49;100.00
29909;BME280;36247;51.952;6.146;2022-12-24T07:18:24;100751.56;;;9.49;100.00
29909;BME280;36247;51.952;6.146;2022-12-24T07:20:49;100751.56;;;9.49;100.00
29909;BME280;36247;51.952;6.146;2022-12-24T07:23:15;100749.78;;;9.48;100.00
29909;BME280;36247;51.952;6.146;2022-12-24T07:25:41;100757.69;;;9.48;100.00
29909;BME280;36247;51.952;6.146;2022-12-24T07:28:06;100772.72;;;9.49;100.00
29909;BME280;36247;51.952;6.146;2022-12-24T07:30:32;100780.59;;;9.46;100.00
29909;BME280;36247;51.952;6.146;2022-12-24T07:32:57;100776.13;;;9.42;100.00
29909;BME280;36247;51.952;6.146;2022-12-24T07:35:23;100779.69;;;9.44;100.00
29909;BME280;36247;51.952;6.146;2022-12-24T07:37:48;100783.16;;;9.41;100.00
29909;BME280;36247;51.952;6.146;2022-12-24T07:40:14;100791.13;;;9.43;100.00
29909;BME280;36247;51.952;6.146;2022-12-24T07:42:39;100787.69;;;9.47;100.00
29909;BME280;36247;51.952;6.146;2022-12-24T07:45:05;100803.53;;;9.47;100.00
29909;BME280;36247;51.952;6.146;2022-12-24T07:47:30;100806.22;;;9.48;100.00
29909;BME280;36247;51.952;6.146;2022-12-24T07:49:56;100811.47;;;9.47;100.00
29909;BME280;36247;51.952;6.146;2022-12-24T07:52:21;100807.84;;;9.42;100.00
29909;BME280;36247;51.952;6.146;2022-12-24T07:54:47;100817.59;;;9.44;100.00
29909;BME280;36247;51.952;6.146;2022-12-24T07:57:12;100819.38;;;9.45;100.00
29909;BME280;36247;51.952;6.146;2022-12-24T07:59:38;100830.88;;;9.47;100.00
29909;BME280;36247;51.952;6.146;2022-12-24T08:02:03;100836.03;;;9.40;100.00
29909;BME280;36247;51.952;6.146;2022-12-24T08:04:32;100843.13;;;9.42;100.00
29909;BME280;36247;51.952;6.146;2022-12-24T08:07:01;100845.84;;;9.47;100.00
29909;BME280;36247;51.952;6.146;2022-12-24T08:09:27;100847.56;;;9.45;100.00
29909;BME280;36247;51.952;6.146;2022-12-24T08:11:52;100861.66;;;9.44;100.00
29909;BME280;36247;51.952;6.146;2022-12-24T08:14:18;100859.09;;;9.47;100.00
29909;BME280;36247;51.952;6.146;2022-12-24T08:16:43;100860.81;;;9.46;100.00
29909;BME280;36247;51.952;6.146;2022-12-24T08:19:09;100860.00;;;9.49;100.00
29909;BME280;36247;51.952;6.146;2022-12-24T08:21:34;100864.44;;;9.50;100.00
29909;BME280;36247;51.952;6.146;2022-12-24T08:24:00;100873.25;;;9.52;100.00
29909;BME280;36247;51.952;6.146;2022-12-24T08:26:25;100869.78;;;9.53;100.00
29909;BME280;36247;51.952;6.146;2022-12-24T08:28:51;100879.53;;;9.57;100.00
29909;BME280;36247;51.952;6.146;2022-12-24T08:31:16;100882.28;;;9.62;100.00
29909;BME280;36247;51.952;6.146;2022-12-24T08:33:42;100917.59;;;9.65;100.00
29909;BME280;36247;51.952;6.146;2022-12-24T08:36:07;100884.16;;;9.67;100.00
29909;BME280;36247;51.952;6.146;2022-12-24T08:38:33;100880.56;;;9.65;100.00
29909;BME280;36247;51.952;6.146;2022-12-24T08:40:58;100881.38;;;9.63;100.00
29909;BME280;36247;51.952;6.146;2022-12-24T08:43:24;100883.22;;;9.65;100.00
29909;BME280;36247;51.952;6.146;2022-12-24T08:45:52;100894.69;;;9.64;100.00
29909;BME280;36247;51.952;6.146;2022-12-24T08:48:18;100906.13;;;9.65;100.00
29909;BME280;36247;51.952;6.146;2022-12-24T08:50:44;100899.09;;;9.65;100.00
29909;BME280;36247;51.952;6.146;2022-12-24T08:53:10;100898.19;;;9.63;100.00
29909;BME280;36247;51.952;6.146;2022-12-24T08:55:37;100901.72;;;9.65;100.00
29909;BME280;36247;51.952;6.146;2022-12-24T08:58:02;100915.84;;;9.64;100.00
29909;BME280;36247;51.952;6.146;2022-12-24T09:00:28;100919.38;;;9.66;100.00
29909;BME280;36247;51.952;6.146;2022-12-24T09:02:55;100929.13;;;9.67;100.00
29909;BME280;36247;51.952;6.146;2022-12-24T09:05:20;100932.66;;;9.68;100.00
29909;BME280;36247;51.952;6.146;2022-12-24T09:07:46;100929.19;;;9.70;100.00
29909;BME280;36247;51.952;6.146;2022-12-24T09:10:11;100935.41;;;9.74;100.00
29909;BME280;36247;51.952;6.146;2022-12-24T09:12:37;100938.09;;;9.77;100.00
29909;BME280;36247;51.952;6.146;2022-12-24T09:15:03;100940.78;;;9.79;100.00
29909;BME280;36247;51.952;6.146;2022-12-24T09:17:30;100941.69;;;9.79;100.00
29909;BME280;36247;51.952;6.146;2022-12-24T09:19:56;100943.50;;;9.83;100.00
29909;BME280;36247;51.952;6.146;2022-12-24T09:22:21;100940.84;;;9.82;100.00
29909;BME280;36247;51.952;6.146;2022-12-24T09:24:46;100945.25;;;9.81;100.00
29909;BME280;36247;51.952;6.146;2022-12-24T09:27:12;100959.50;;;9.89;100.00
29909;BME280;36247;51.952;6.146;2022-12-24T09:29:37;100955.22;;;9.96;100.00
29909;BME280;36247;51.952;6.146;2022-12-24T09:32:06;100958.72;;;9.95;100.00
29909;BME280;36247;51.952;6.146;2022-12-24T09:34:31;100956.91;;;9.93;100.00
29909;BME280;36247;51.952;6.146;2022-12-24T09:36:56;100971.06;;;9.95;100.00
29909;BME280;36247;51.952;6.146;2022-12-24T09:39:22;100977.28;;;9.98;100.00
29909;BME280;36247;51.952;6.146;2022-12-24T09:42:18;100973.75;;;9.96;100.00
29909;BME280;36247;51.952;6.146;2022-12-24T09:44:53;100971.97;;;9.97;100.00
29909;BME280;36247;51.952;6.146;2022-12-24T09:47:36;100983.53;;;10.00;100.00
29909;BME280;36247;51.952;6.146;2022-12-24T09:50:17;100984.38;;;9.99;100.00
29909;BME280;36247;51.952;6.146;2022-12-24T09:52:46;100995.06;;;10.04;100.00
29909;BME280;36247;51.952;6.146;2022-12-24T09:55:32;100992.22;;;9.93;100.00
29909;BME280;36247;51.952;6.146;2022-12-24T09:57:59;100995.75;;;9.94;100.00
29909;BME280;36247;51.952;6.146;2022-12-24T10:00:29;101002.84;;;9.96;100.00
29909;BME280;36247;51.952;6.146;2022-12-24T10:02:56;101009.91;;;9.96;100.00
29909;BME280;36247;51.952;6.146;2022-12-24T10:05:42;101001.06;;;9.95;100.00
29909;BME280;36247;51.952;6.146;2022-12-24T10:11:20;101003.66;;;9.92;100.00
29909;BME280;36247;51.952;6.146;2022-12-24T10:14:07;101010.78;;;9.95;100.00
29909;BME280;36247;51.952;6.146;2022-12-24T10:19:30;101016.41;;;10.13;100.00
29909;BME280;36247;51.952;6.146;2022-12-24T10:24:38;101026.03;;;10.08;100.00
29909;BME280;36247;51.952;6.146;2022-12-24T10:27:12;101027.63;;;10.01;100.00
29909;BME280;36247;51.952;6.146;2022-12-24T10:29:48;101018.88;;;10.04;100.00
29909;BME280;36247;51.952;6.146;2022-12-24T10:32:20;101021.72;;;10.15;100.00
29909;BME280;36247;51.952;6.146;2022-12-24T10:35:05;101022.59;;;10.14;100.00
29909;BME280;36247;51.952;6.146;2022-12-24T10:37:32;101032.31;;;10.15;100.00
29909;BME280;36247;51.952;6.146;2022-12-24T10:39:59;101025.66;;;10.35;100.00
29909;BME280;36247;51.952;6.146;2022-12-24T10:42:37;101024.78;;;10.35;100.00
29909;BME280;36247;51.952;6.146;2022-12-24T10:45:05;101013.13;;;10.28;100.00
29909;BME280;36247;51.952;6.146;2022-12-24T10:47:36;101026.53;;;10.36;100.00
29909;BME280;36247;51.952;6.146;2022-12-24T10:50:12;101010.38;;;10.71;100.00
29909;BME280;36247;51.952;6.146;2022-12-24T10:52:40;101007.22;;;11.64;100.00
29909;BME280;36247;51.952;6.146;2022-12-24T10:57:44;101012.31;;;11.44;100.00
29909;BME280;36247;51.952;6.146;2022-12-24T11:00:19;101006.53;;;11.10;100.00
29909;BME280;36247;51.952;6.146;2022-12-24T11:02:46;101012.81;;;11.15;100.00
29909;BME280;36247;51.952;6.146;2022-12-24T11:05:32;101012.53;;;11.64;100.00
29909;BME280;36247;51.952;6.146;2022-12-24T11:08:15;101025.31;;;11.27;100.00
29909;BME280;36247;51.952;6.146;2022-12-24T11:10:54;101029.31;;;10.97;100.00
29909;BME280;36247;51.952;6.146;2022-12-24T11:13:33;101019.69;;;11.04;100.00
29909;BME280;36247;51.952;6.146;2022-12-24T11:16:01;101018.56;;;10.88;100.00
29909;BME280;36247;51.952;6.146;2022-12-24T11:18:27;101030.19;;;10.94;100.00
29909;BME280;36247;51.952;6.146;2022-12-24T11:20:53;101018.34;;;10.72;100.00
29909;BME280;36247;51.952;6.146;2022-12-24T11:23:19;101022.47;;;10.55;100.00
29909;BME280;36247;51.952;6.146;2022-12-24T11:25:47;101026.91;;;10.56;100.00
29909;BME280;36247;51.952;6.146;2022-12-24T11:28:30;101021.66;;;10.59;100.00
29909;BME280;36247;51.952;6.146;2022-12-24T11:31:18;101016.28;;;10.54;100.00
29909;BME280;36247;51.952;6.146;2022-12-24T11:33:47;101021.41;;;10.44;100.00
29909;BME280;36247;51.952;6.146;2022-12-24T11:36:12;101026.66;;;10.40;100.00
29909;BME280;36247;51.952;6.146;2022-12-24T11:38:38;101032.81;;;10.41;100.00
29909;BME280;36247;51.952;6.146;2022-12-24T11:41:10;101034.00;;;10.57;100.00
29909;BME280;36247;51.952;6.146;2022-12-24T11:43:39;101034.03;;;10.60;100.00
29909;BME280;36247;51.952;6.146;2022-12-24T11:48:45;101032.94;;;10.49;100.00
29909;BME280;36247;51.952;6.146;2022-12-24T11:51:23;101038.19;;;10.44;100.00
29909;BME280;36247;51.952;6.146;2022-12-24T11:53:59;101038.09;;;10.39;100.00
29909;BME280;36247;51.952;6.146;2022-12-24T11:56:32;101041.66;;;10.41;100.00
29909;BME280;36247;51.952;6.146;2022-12-24T11:59:06;101042.56;;;10.42;100.00
29909;BME280;36247;51.952;6.146;2022-12-24T12:01:59;101038.22;;;10.47;100.00
29909;BME280;36247;51.952;6.146;2022-12-24T12:04:29;101040.94;;;10.52;100.00
29909;BME280;36247;51.952;6.146;2022-12-24T12:07:02;101021.44;;;10.47;100.00
29909;BME280;36247;51.952;6.146;2022-12-24T12:09:39;101038.66;;;10.72;100.00
29909;BME280;36247;51.952;6.146;2022-12-24T12:12:13;101039.06;;;10.98;100.00
29909;BME280;36247;51.952;6.146;2022-12-24T12:14:45;101043.09;;;11.33;100.00
29909;BME280;36247;51.952;6.146;2022-12-24T12:20:03;101048.25;;;11.23;100.00
29909;BME280;36247;51.952;6.146;2022-12-24T12:23:00;101043.72;;;11.15;100.00
29909;BME280;36247;51.952;6.146;2022-12-24T12:28:10;101059.28;;;10.91;100.00
29909;BME280;36247;51.952;6.146;2022-12-24T12:30:40;101050.06;;;11.24;100.00
29909;BME280;36247;51.952;6.146;2022-12-24T12:36:31;101063.81;;;11.60;100.00
29909;BME280;36247;51.952;6.146;2022-12-24T12:38:58;101064.53;;;11.48;100.00
29909;BME280;36247;51.952;6.146;2022-12-24T12:44:11;101080.25;;;10.79;100.00
29909;BME280;36247;51.952;6.146;2022-12-24T12:50:08;101075.13;;;10.88;100.00
29909;BME280;36247;51.952;6.146;2022-12-24T12:55:20;101069.66;;;11.36;100.00
29909;BME280;36247;51.952;6.146;2022-12-24T12:57:48;101080.63;;;11.62;100.00
29909;BME280;36247;51.952;6.146;2022-12-24T13:00:17;101076.25;;;11.67;100.00
29909;BME280;36247;51.952;6.146;2022-12-24T13:06:03;101084.13;;;11.58;100.00
29909;BME280;36247;51.952;6.146;2022-12-24T13:15:08;101093.75;;;11.50;100.00
29909;BME280;36247;51.952;6.146;2022-12-24T13:18:10;101102.66;;;11.55;100.00
29909;BME280;36247;51.952;6.146;2022-12-24T13:20:47;101108.38;;;11.86;100.00
29909;BME280;36247;51.952;6.146;2022-12-24T13:25:44;101104.59;;;12.39;100.00
29909;BME280;36247;51.952;6.146;2022-12-24T13:30:40;101113.13;;;12.10;100.00
29909;BME280;36247;51.952;6.146;2022-12-24T13:33:44;101109.22;;;12.60;100.00
29909;BME280;36247;51.952;6.146;2022-12-24T13:36:01;101107.03;;;13.11;100.00
29909;BME280;36247;51.952;6.146;2022-12-24T13:38:39;101114.19;;;13.22;100.00
29909;BME280;36247;51.952;6.146;2022-12-24T13:49:29;101132.28;;;12.61;100.00
29909;BME280;36247;51.952;6.146;2022-12-24T13:57:24;101133.72;;;11.62;100.00
29909;BME280;36247;51.952;6.146;2022-12-24T14:00:01;101151.13;;;11.44;100.00
29909;BME280;36247;51.952;6.146;2022-12-24T14:02:43;101157.56;;;11.04;100.00
29909;BME280;36247;51.952;6.146;2022-12-24T14:05:43;101159.69;;;10.74;100.00
29909;BME280;36247;51.952;6.146;2022-12-24T14:11:09;101153.78;;;10.89;100.00
29909;BME280;36247;51.952;6.146;2022-12-24T14:16:16;101170.44;;;10.84;100.00
29909;BME280;36247;51.952;6.146;2022-12-24T14:21:27;101170.69;;;10.96;100.00
29909;BME280;36247;51.952;6.146;2022-12-24T14:27:17;101174.16;;;10.92;100.00